sensor_id;sensor_type;location;lat;lon;timestamp;pressure;altitude;pressure_sealevel;temperature;humidity
64739;BME280;51175;51.186;0.276;2022-10-20T00:00:14;100761.69;;;17.08;67.53
64739;BME280;51175;51.186;0.276;2022-10-20T00:00:45;100759.78;;;17.09;67.82
64739;BME280;51175;51.186;0.276;2022-10-20T00:01:17;100751.00;;;17.08;67.58
64739;BME280;51175;51.186;0.276;2022-10-20T00:01:47;100751.00;;;17.08;67.69
64739;BME280;51175;51.186;0.276;2022-10-20T00:02:17;100750.19;;;17.08;67.71
64739;BME280;51175;51.186;0.276;2022-10-20T00:02:48;100757.91;;;17.09;67.51
64739;BME280;51175;51.186;0.276;2022-10-20T00:03:18;100747.53;;;17.08;67.48
64739;BME280;51175;51.186;0.276;2022-10-20T00:03:49;100747.53;;;17.08;67.63
64739;BME280;51175;51.186;0.276;2022-10-20T00:04:20;100739.22;;;17.09;67.65
64739;BME280;51175;51.186;0.276;2022-10-20T00:04:50;100744.88;;;17.08;67.78
64739;BME280;51175;51.186;0.276;2022-10-20T00:05:21;100745.66;;;17.08;67.46
64739;BME280;51175;51.186;0.276;2022-10-20T00:05:51;100738.69;;;17.07;67.51
64739;BME280;51175;51.186;0.276;2022-10-20T00:06:30;100748.34;;;17.08;67.78
64739;BME280;51175;51.186;0.276;2022-10-20T00:07:01;100740.59;;;17.07;67.55
64739;BME280;51175;51.186;0.276;2022-10-20T00:07:31;100730.69;;;17.07;67.75
64739;BME280;51175;51.186;0.276;2022-10-20T00:08:01;100739.81;;;17.06;67.61
64739;BME280;51175;51.186;0.276;2022-10-20T00:08:32;100738.69;;;17.07;67.77
64739;BME280;51175;51.186;0.276;2022-10-20T00:09:03;100744.88;;;17.08;67.81
64739;BME280;51175;51.186;0.276;2022-10-20T00:09:34;100743.25;;;17.07;67.52
64739;BME280;51175;51.186;0.276;2022-10-20T00:10:04;100743.25;;;17.07;67.64
64739;BME280;51175;51.186;0.276;2022-10-20T00:10:35;100746.72;;;17.07;67.56
64739;BME280;51175;51.186;0.276;2022-10-20T00:11:06;100744.88;;;17.08;67.79
64739;BME280;51175;51.186;0.276;2022-10-20T00:11:37;100747.81;;;17.06;67.72
64739;BME280;51175;51.186;0.276;2022-10-20T00:12:08;100736.03;;;17.07;67.59
64739;BME280;51175;51.186;0.276;2022-10-20T00:12:38;100739.81;;;17.06;67.64
64739;BME280;51175;51.186;0.276;2022-10-20T00:13:08;100733.38;;;17.07;67.48
64739;BME280;51175;51.186;0.276;2022-10-20T00:13:39;100732.59;;;17.07;67.67
64739;BME280;51175;51.186;0.276;2022-10-20T00:14:10;100739.81;;;17.06;67.91
64739;BME280;51175;51.186;0.276;2022-10-20T00:14:41;100733.38;;;17.07;67.38
64739;BME280;51175;51.186;0.276;2022-10-20T00:15:11;100731.53;;;17.08;67.77
64739;BME280;51175;51.186;0.276;2022-10-20T00:15:47;100727.25;;;17.07;67.68
64739;BME280;51175;51.186;0.276;2022-10-20T00:16:19;100729.94;;;17.07;67.66
64739;BME280;51175;51.186;0.276;2022-10-20T00:16:50;100723.78;;;17.06;67.75
64739;BME280;51175;51.186;0.276;2022-10-20T00:17:20;100726.47;;;17.06;67.88
64739;BME280;51175;51.186;0.276;2022-10-20T00:17:50;100733.38;;;17.07;67.55
64739;BME280;51175;51.186;0.276;2022-10-20T00:18:22;100727.25;;;17.07;67.89
64739;BME280;51175;51.186;0.276;2022-10-20T00:18:54;100734.47;;;17.06;67.88
64739;BME280;51175;51.186;0.276;2022-10-20T00:19:24;100738.69;;;17.07;67.88
64739;BME280;51175;51.186;0.276;2022-10-20T00:19:55;100734.47;;;17.06;67.77
64739;BME280;51175;51.186;0.276;2022-10-20T00:20:26;100729.13;;;17.06;67.70
64739;BME280;51175;51.186;0.276;2022-10-20T00:20:56;100727.56;;;17.05;67.59
64739;BME280;51175;51.186;0.276;2022-10-20T00:21:28;100737.13;;;17.06;67.70
64739;BME280;51175;51.186;0.276;2022-10-20T00:21:59;100732.59;;;17.07;67.75
64739;BME280;51175;51.186;0.276;2022-10-20T00:22:30;100732.59;;;17.07;67.54
64739;BME280;51175;51.186;0.276;2022-10-20T00:23:01;100739.81;;;17.06;67.86
64739;BME280;51175;51.186;0.276;2022-10-20T00:23:31;100732.59;;;17.07;67.78
64739;BME280;51175;51.186;0.276;2022-10-20T00:24:02;100731.00;;;17.06;67.88
64739;BME280;51175;51.186;0.276;2022-10-20T00:24:32;100737.13;;;17.06;67.68
64739;BME280;51175;51.186;0.276;2022-10-20T00:25:03;100726.47;;;17.06;67.82
64739;BME280;51175;51.186;0.276;2022-10-20T00:25:33;100733.66;;;17.06;67.81
64739;BME280;51175;51.186;0.276;2022-10-20T00:26:06;100731.78;;;17.06;67.84
64739;BME280;51175;51.186;0.276;2022-10-20T00:26:37;100723.78;;;17.06;67.69
64739;BME280;51175;51.186;0.276;2022-10-20T00:27:07;100722.69;;;17.07;67.88
64739;BME280;51175;51.186;0.276;2022-10-20T00:27:38;100725.34;;;17.07;67.72
64739;BME280;51175;51.186;0.276;2022-10-20T00:28:09;100716.88;;;17.05;67.82
64739;BME280;51175;51.186;0.276;2022-10-20T00:28:39;100714.97;;;17.06;67.73
64739;BME280;51175;51.186;0.276;2022-10-20T00:29:09;100717.66;;;17.06;67.96
64739;BME280;51175;51.186;0.276;2022-10-20T00:29:40;100718.44;;;17.06;67.70
64739;BME280;51175;51.186;0.276;2022-10-20T00:30:10;100714.97;;;17.06;67.49
64739;BME280;51175;51.186;0.276;2022-10-20T00:30:41;100714.97;;;17.06;67.84
64739;BME280;51175;51.186;0.276;2022-10-20T00:31:12;100710.44;;;17.06;67.78
64739;BME280;51175;51.186;0.276;2022-10-20T00:31:43;100714.97;;;17.06;67.70
64739;BME280;51175;51.186;0.276;2022-10-20T00:32:13;100713.13;;;17.06;67.84
64739;BME280;51175;51.186;0.276;2022-10-20T00:32:46;100710.44;;;17.06;67.98
64739;BME280;51175;51.186;0.276;2022-10-20T00:33:16;100699.78;;;17.06;67.52
64739;BME280;51175;51.186;0.276;2022-10-20T00:33:47;100707.78;;;17.06;67.49
64739;BME280;51175;51.186;0.276;2022-10-20T00:34:17;100704.31;;;17.06;67.60
64739;BME280;51175;51.186;0.276;2022-10-20T00:34:47;100699.78;;;17.06;67.59
64739;BME280;51175;51.186;0.276;2022-10-20T00:35:18;100701.66;;;17.06;67.89
64739;BME280;51175;51.186;0.276;2022-10-20T00:35:48;100697.09;;;17.06;67.65
64739;BME280;51175;51.186;0.276;2022-10-20T00:36:20;100695.53;;;17.05;67.67
64739;BME280;51175;51.186;0.276;2022-10-20T00:36:51;100692.88;;;17.05;67.60
64739;BME280;51175;51.186;0.276;2022-10-20T00:37:22;100695.53;;;17.05;67.71
64739;BME280;51175;51.186;0.276;2022-10-20T00:37:52;100695.53;;;17.05;67.80
64739;BME280;51175;51.186;0.276;2022-10-20T00:38:23;100697.41;;;17.05;67.87
64739;BME280;51175;51.186;0.276;2022-10-20T00:38:58;100692.88;;;17.05;68.04
64739;BME280;51175;51.186;0.276;2022-10-20T00:39:29;100695.53;;;17.05;67.73
64739;BME280;51175;51.186;0.276;2022-10-20T00:40:00;100693.63;;;17.06;67.63
64739;BME280;51175;51.186;0.276;2022-10-20T00:40:30;100695.53;;;17.05;67.89
64739;BME280;51175;51.186;0.276;2022-10-20T00:41:00;100696.31;;;17.06;67.76
64739;BME280;51175;51.186;0.276;2022-10-20T00:41:34;100697.09;;;17.06;67.61
64739;BME280;51175;51.186;0.276;2022-10-20T00:42:04;100697.41;;;17.05;67.79
64739;BME280;51175;51.186;0.276;2022-10-20T00:42:35;100694.75;;;17.05;67.89
64739;BME280;51175;51.186;0.276;2022-10-20T00:43:13;100695.53;;;17.05;67.82
64739;BME280;51175;51.186;0.276;2022-10-20T00:45:21;100689.41;;;17.05;67.70
64739;BME280;51175;51.186;0.276;2022-10-20T00:45:54;100692.06;;;17.05;68.00
64739;BME280;51175;51.186;0.276;2022-10-20T00:46:38;100687.03;;;17.03;68.00
64739;BME280;51175;51.186;0.276;2022-10-20T00:47:18;100688.59;;;17.04;67.77
64739;BME280;51175;51.186;0.276;2022-10-20T00:47:53;100680.13;;;17.02;67.73
64739;BME280;51175;51.186;0.276;2022-10-20T00:48:27;100680.13;;;17.02;67.71
64739;BME280;51175;51.186;0.276;2022-10-20T00:49:02;100687.34;;;17.02;67.78
64739;BME280;51175;51.186;0.276;2022-10-20T00:49:35;100687.34;;;17.02;68.00
64739;BME280;51175;51.186;0.276;2022-10-20T00:50:18;100685.47;;;17.02;67.74
64739;BME280;51175;51.186;0.276;2022-10-20T00:50:53;100685.47;;;17.02;68.11
64739;BME280;51175;51.186;0.276;2022-10-20T00:51:27;100686.53;;;17.01;67.74
64739;BME280;51175;51.186;0.276;2022-10-20T00:51:58;100678.53;;;17.01;68.10
64739;BME280;51175;51.186;0.276;2022-10-20T00:52:28;100676.16;;;16.99;67.96
64739;BME280;51175;51.186;0.276;2022-10-20T00:53:00;100674.78;;;17.02;67.81
64739;BME280;51175;51.186;0.276;2022-10-20T00:53:31;100673.19;;;17.01;68.16
64739;BME280;51175;51.186;0.276;2022-10-20T00:54:12;100672.44;;;17.00;68.16
64739;BME280;51175;51.186;0.276;2022-10-20T00:54:45;100679.63;;;17.00;68.16
64739;BME280;51175;51.186;0.276;2022-10-20T00:55:19;100677.75;;;17.00;67.85
64739;BME280;51175;51.186;0.276;2022-10-20T00:55:53;100672.44;;;17.00;67.97
64739;BME280;51175;51.186;0.276;2022-10-20T00:56:25;100676.97;;;17.00;68.20
64739;BME280;51175;51.186;0.276;2022-10-20T00:56:56;100680.44;;;17.00;67.87
64739;BME280;51175;51.186;0.276;2022-10-20T00:57:28;100676.97;;;17.00;67.90
64739;BME280;51175;51.186;0.276;2022-10-20T00:58:00;100679.63;;;17.00;67.81
64739;BME280;51175;51.186;0.276;2022-10-20T00:58:33;100678.53;;;17.01;67.85
64739;BME280;51175;51.186;0.276;2022-10-20T00:59:03;100676.97;;;17.00;67.91
64739;BME280;51175;51.186;0.276;2022-10-20T00:59:35;100677.75;;;17.00;67.78
64739;BME280;51175;51.186;0.276;2022-10-20T01:00:06;100676.16;;;16.99;68.08
64739;BME280;51175;51.186;0.276;2022-10-20T01:00:39;100670.53;;;17.01;68.18
64739;BME280;51175;51.186;0.276;2022-10-20T01:01:12;100670.53;;;17.01;67.86
64739;BME280;51175;51.186;0.276;2022-10-20T01:01:43;100671.31;;;17.02;67.91
64739;BME280;51175;51.186;0.276;2022-10-20T01:02:13;100675.84;;;17.01;67.82
64739;BME280;51175;51.186;0.276;2022-10-20T01:02:44;100675.09;;;17.00;67.96
64739;BME280;51175;51.186;0.276;2022-10-20T01:03:29;100681.19;;;17.01;67.90
64739;BME280;51175;51.186;0.276;2022-10-20T01:04:03;100680.13;;;17.02;67.88
64739;BME280;51175;51.186;0.276;2022-10-20T01:04:35;100675.84;;;17.01;67.87
64739;BME280;51175;51.186;0.276;2022-10-20T01:05:07;100681.19;;;17.01;67.72
64739;BME280;51175;51.186;0.276;2022-10-20T01:05:38;100683.88;;;17.01;67.78
64739;BME280;51175;51.186;0.276;2022-10-20T01:06:08;100683.88;;;17.01;68.16
64739;BME280;51175;51.186;0.276;2022-10-20T01:06:39;100681.19;;;17.01;67.86
64739;BME280;51175;51.186;0.276;2022-10-20T01:07:09;100684.66;;;17.02;67.97
64739;BME280;51175;51.186;0.276;2022-10-20T01:07:40;100678.53;;;17.01;67.86
64739;BME280;51175;51.186;0.276;2022-10-20T01:08:10;100677.75;;;17.00;68.18
64739;BME280;51175;51.186;0.276;2022-10-20T01:08:41;100679.31;;;17.02;68.07
64739;BME280;51175;51.186;0.276;2022-10-20T01:09:11;100681.19;;;17.01;67.75
64739;BME280;51175;51.186;0.276;2022-10-20T01:09:41;100678.53;;;17.01;68.12
64739;BME280;51175;51.186;0.276;2022-10-20T01:10:12;100676.66;;;17.02;67.94
64739;BME280;51175;51.186;0.276;2022-10-20T01:11:13;100671.03;;;17.03;67.85
64739;BME280;51175;51.186;0.276;2022-10-20T01:12:11;100678.22;;;17.03;67.91
64739;BME280;51175;51.186;0.276;2022-10-20T01:12:52;100683.88;;;17.01;67.93
64739;BME280;51175;51.186;0.276;2022-10-20T01:15:37;100697.50;;;16.99;68.05
64739;BME280;51175;51.186;0.276;2022-10-20T01:17:28;100691.66;;;16.97;67.88
64739;BME280;51175;51.186;0.276;2022-10-20T01:18:16;100683.97;;;16.96;68.11
64739;BME280;51175;51.186;0.276;2022-10-20T01:20:43;100683.50;;;16.94;68.17
64739;BME280;51175;51.186;0.276;2022-10-20T01:22:15;100675.78;;;16.92;68.31
64739;BME280;51175;51.186;0.276;2022-10-20T01:24:15;100676.09;;;16.91;68.45
64739;BME280;51175;51.186;0.276;2022-10-20T01:26:11;100675.28;;;16.90;68.49
64739;BME280;51175;51.186;0.276;2022-10-20T01:27:37;100675.28;;;16.90;68.52
64739;BME280;51175;51.186;0.276;2022-10-20T01:28:42;100669.16;;;16.90;68.28
64739;BME280;51175;51.186;0.276;2022-10-20T01:29:15;100666.78;;;16.88;68.69
64739;BME280;51175;51.186;0.276;2022-10-20T01:30:05;100668.38;;;16.89;68.54
64739;BME280;51175;51.186;0.276;2022-10-20T01:30:43;100671.81;;;16.90;68.40
64739;BME280;51175;51.186;0.276;2022-10-20T01:31:30;100664.91;;;16.88;68.55
64739;BME280;51175;51.186;0.276;2022-10-20T01:33:49;100664.91;;;16.88;68.66
64739;BME280;51175;51.186;0.276;2022-10-20T01:34:47;100664.13;;;16.88;68.74
64739;BME280;51175;51.186;0.276;2022-10-20T01:36:19;100667.88;;;16.87;68.68
64739;BME280;51175;51.186;0.276;2022-10-20T01:37:03;100666.00;;;16.87;68.41
64739;BME280;51175;51.186;0.276;2022-10-20T01:39:07;100668.69;;;16.87;68.44
64739;BME280;51175;51.186;0.276;2022-10-20T01:39:53;100666.78;;;16.88;68.35
64739;BME280;51175;51.186;0.276;2022-10-20T01:40:30;100670.53;;;16.87;68.75
64739;BME280;51175;51.186;0.276;2022-10-20T01:41:07;100668.69;;;16.87;68.57
64739;BME280;51175;51.186;0.276;2022-10-20T01:41:45;100669.44;;;16.88;68.79
64739;BME280;51175;51.186;0.276;2022-10-20T01:42:21;100663.34;;;16.87;68.43
64739;BME280;51175;51.186;0.276;2022-10-20T01:42:56;100669.44;;;16.88;68.56
64739;BME280;51175;51.186;0.276;2022-10-20T01:43:30;100667.56;;;16.88;68.73
64739;BME280;51175;51.186;0.276;2022-10-20T01:44:04;100656.91;;;16.88;68.28
64739;BME280;51175;51.186;0.276;2022-10-20T01:44:37;100661.16;;;16.90;68.54
64739;BME280;51175;51.186;0.276;2022-10-20T01:45:09;100665.72;;;16.89;68.64
64739;BME280;51175;51.186;0.276;2022-10-20T01:45:44;100649.72;;;16.89;68.51
64739;BME280;51175;51.186;0.276;2022-10-20T01:46:16;100653.13;;;16.90;68.62
64739;BME280;51175;51.186;0.276;2022-10-20T01:46:48;100654.75;;;16.91;68.23
64739;BME280;51175;51.186;0.276;2022-10-20T01:47:21;100657.41;;;16.91;68.38
64739;BME280;51175;51.186;0.276;2022-10-20T01:47:54;100660.84;;;16.91;68.30
64739;BME280;51175;51.186;0.276;2022-10-20T01:48:30;100656.31;;;16.92;68.39
64739;BME280;51175;51.186;0.276;2022-10-20T01:49:02;100661.66;;;16.92;68.51
64739;BME280;51175;51.186;0.276;2022-10-20T01:49:34;100654.16;;;16.94;68.25
64739;BME280;51175;51.186;0.276;2022-10-20T01:50:05;100659.47;;;16.94;68.37
64739;BME280;51175;51.186;0.276;2022-10-20T01:50:37;100660.25;;;16.94;68.28
64739;BME280;51175;51.186;0.276;2022-10-20T01:51:09;100657.59;;;16.94;68.24
64739;BME280;51175;51.186;0.276;2022-10-20T01:51:39;100653.03;;;16.95;68.37
64739;BME280;51175;51.186;0.276;2022-10-20T01:52:11;100653.03;;;16.95;68.24
64739;BME280;51175;51.186;0.276;2022-10-20T01:52:41;100654.63;;;16.96;68.40
64739;BME280;51175;51.186;0.276;2022-10-20T01:53:12;100649.28;;;16.96;68.10
64739;BME280;51175;51.186;0.276;2022-10-20T01:53:42;100645.53;;;16.97;68.30
64739;BME280;51175;51.186;0.276;2022-10-20T01:54:39;100638.31;;;16.97;68.24
64739;BME280;51175;51.186;0.276;2022-10-20T01:55:15;100637.53;;;16.97;68.05
64739;BME280;51175;51.186;0.276;2022-10-20T01:55:49;100637.53;;;16.97;68.20
64739;BME280;51175;51.186;0.276;2022-10-20T01:59:16;100637.53;;;16.97;68.23
64739;BME280;51175;51.186;0.276;2022-10-20T02:00:33;100632.50;;;16.95;68.11
64739;BME280;51175;51.186;0.276;2022-10-20T02:02:21;100631.41;;;16.96;68.46
64739;BME280;51175;51.186;0.276;2022-10-20T02:03:53;100637.03;;;16.95;68.45
64739;BME280;51175;51.186;0.276;2022-10-20T02:05:34;100628.25;;;16.94;68.46
64739;BME280;51175;51.186;0.276;2022-10-20T02:07:24;100622.44;;;16.92;68.45
64739;BME280;51175;51.186;0.276;2022-10-20T02:08:29;100614.44;;;16.92;68.52
64739;BME280;51175;51.186;0.276;2022-10-20T02:09:05;100624.31;;;16.92;68.22
64739;BME280;51175;51.186;0.276;2022-10-20T02:09:44;100618.97;;;16.92;68.43
64739;BME280;51175;51.186;0.276;2022-10-20T02:10:28;100618.16;;;16.91;68.17
64739;BME280;51175;51.186;0.276;2022-10-20T02:11:02;100616.28;;;16.92;68.52
64739;BME280;51175;51.186;0.276;2022-10-20T02:11:47;100618.97;;;16.92;68.52
64739;BME280;51175;51.186;0.276;2022-10-20T02:12:24;100618.97;;;16.92;68.31
64739;BME280;51175;51.186;0.276;2022-10-20T02:13:02;100613.63;;;16.92;68.30
64739;BME280;51175;51.186;0.276;2022-10-20T02:13:36;100610.97;;;16.92;68.42
64739;BME280;51175;51.186;0.276;2022-10-20T02:14:10;100612.84;;;16.91;68.20
64739;BME280;51175;51.186;0.276;2022-10-20T02:14:42;100610.16;;;16.91;68.47
64739;BME280;51175;51.186;0.276;2022-10-20T02:15:16;100608.28;;;16.92;68.47
64739;BME280;51175;51.186;0.276;2022-10-20T02:15:53;100610.66;;;16.93;68.60
64739;BME280;51175;51.186;0.276;2022-10-20T02:16:28;100610.66;;;16.93;68.16
64739;BME280;51175;51.186;0.276;2022-10-20T02:17:05;100608.00;;;16.93;68.44
64739;BME280;51175;51.186;0.276;2022-10-20T02:17:37;100610.66;;;16.93;68.31
64739;BME280;51175;51.186;0.276;2022-10-20T02:18:12;100608.00;;;16.93;68.49
64739;BME280;51175;51.186;0.276;2022-10-20T02:18:45;100611.47;;;16.94;68.03
64739;BME280;51175;51.186;0.276;2022-10-20T02:19:19;100609.56;;;16.94;68.22
64739;BME280;51175;51.186;0.276;2022-10-20T02:19:52;100603.47;;;16.94;68.23
64739;BME280;51175;51.186;0.276;2022-10-20T02:20:23;100614.59;;;16.96;68.00
64739;BME280;51175;51.186;0.276;2022-10-20T02:20:56;100606.59;;;16.96;68.37
64739;BME280;51175;51.186;0.276;2022-10-20T02:21:27;100608.50;;;16.95;68.09
64739;BME280;51175;51.186;0.276;2022-10-20T02:21:58;100611.94;;;16.96;68.32
64739;BME280;51175;51.186;0.276;2022-10-20T02:22:30;100606.28;;;16.97;68.14
64739;BME280;51175;51.186;0.276;2022-10-20T02:23:03;100600.19;;;16.97;68.38
64739;BME280;51175;51.186;0.276;2022-10-20T02:23:38;100600.97;;;16.97;68.08
64739;BME280;51175;51.186;0.276;2022-10-20T02:24:13;100596.44;;;16.98;68.26
64739;BME280;51175;51.186;0.276;2022-10-20T02:24:45;100598.00;;;16.99;68.16
64739;BME280;51175;51.186;0.276;2022-10-20T02:25:16;100599.09;;;16.98;68.29
64739;BME280;51175;51.186;0.276;2022-10-20T02:25:51;100598.00;;;16.99;68.15
64739;BME280;51175;51.186;0.276;2022-10-20T02:26:23;100590.78;;;16.99;68.22
64739;BME280;51175;51.186;0.276;2022-10-20T02:26:56;100596.13;;;16.99;68.10
64739;BME280;51175;51.186;0.276;2022-10-20T02:27:33;100598.78;;;16.99;68.20
64739;BME280;51175;51.186;0.276;2022-10-20T02:28:08;100591.59;;;17.00;68.38
64739;BME280;51175;51.186;0.276;2022-10-20T02:28:43;100595.06;;;17.00;68.06
64739;BME280;51175;51.186;0.276;2022-10-20T02:29:19;100595.06;;;17.00;68.07
64739;BME280;51175;51.186;0.276;2022-10-20T02:29:57;100593.16;;;17.01;68.13
64739;BME280;51175;51.186;0.276;2022-10-20T02:30:30;100587.81;;;17.01;68.09
64739;BME280;51175;51.186;0.276;2022-10-20T02:31:01;100590.50;;;17.01;68.10
64739;BME280;51175;51.186;0.276;2022-10-20T02:31:32;100583.28;;;17.02;68.13
64739;BME280;51175;51.186;0.276;2022-10-20T02:32:03;100582.47;;;17.01;68.31
64739;BME280;51175;51.186;0.276;2022-10-20T02:32:35;100590.50;;;17.01;68.10
64739;BME280;51175;51.186;0.276;2022-10-20T02:33:07;100585.16;;;17.01;68.23
64739;BME280;51175;51.186;0.276;2022-10-20T02:33:38;100574.47;;;17.01;68.16
64739;BME280;51175;51.186;0.276;2022-10-20T02:34:10;100582.47;;;17.01;68.17
64739;BME280;51175;51.186;0.276;2022-10-20T02:34:42;100585.16;;;17.01;68.21
64739;BME280;51175;51.186;0.276;2022-10-20T02:35:14;100580.63;;;17.02;67.92
64739;BME280;51175;51.186;0.276;2022-10-20T02:35:55;100581.41;;;17.02;68.22
64739;BME280;51175;51.186;0.276;2022-10-20T02:36:28;100578.75;;;17.02;67.97
64739;BME280;51175;51.186;0.276;2022-10-20T02:36:58;100575.28;;;17.02;68.04
64739;BME280;51175;51.186;0.276;2022-10-20T02:37:29;100573.41;;;17.02;68.12
64739;BME280;51175;51.186;0.276;2022-10-20T02:38:00;100576.06;;;17.02;68.02
64739;BME280;51175;51.186;0.276;2022-10-20T02:38:30;100576.06;;;17.02;68.36
64739;BME280;51175;51.186;0.276;2022-10-20T02:39:01;100568.84;;;17.03;68.54
64739;BME280;51175;51.186;0.276;2022-10-20T02:39:31;100572.31;;;17.03;68.17
64739;BME280;51175;51.186;0.276;2022-10-20T02:40:02;100561.63;;;17.03;68.26
64739;BME280;51175;51.186;0.276;2022-10-20T02:40:32;100566.97;;;17.03;68.23
64739;BME280;51175;51.186;0.276;2022-10-20T02:41:03;100569.63;;;17.03;68.16
64739;BME280;51175;51.186;0.276;2022-10-20T02:41:33;100572.31;;;17.03;68.24
64739;BME280;51175;51.186;0.276;2022-10-20T02:42:04;100576.53;;;17.04;68.12
64739;BME280;51175;51.186;0.276;2022-10-20T02:42:35;100577.66;;;17.03;68.03
64739;BME280;51175;51.186;0.276;2022-10-20T02:43:06;100579.22;;;17.04;68.13
64739;BME280;51175;51.186;0.276;2022-10-20T02:43:37;100581.13;;;17.04;68.23
64739;BME280;51175;51.186;0.276;2022-10-20T02:44:07;100581.88;;;17.04;68.50
64739;BME280;51175;51.186;0.276;2022-10-20T02:44:38;100583.78;;;17.04;68.15
64739;BME280;51175;51.186;0.276;2022-10-20T02:45:09;100587.22;;;17.04;68.24
64739;BME280;51175;51.186;0.276;2022-10-20T02:45:40;100580.81;;;17.05;68.21
64739;BME280;51175;51.186;0.276;2022-10-20T02:46:10;100580.00;;;17.05;68.22
64739;BME280;51175;51.186;0.276;2022-10-20T02:46:41;100579.22;;;17.04;68.28
64739;BME280;51175;51.186;0.276;2022-10-20T02:47:11;100575.47;;;17.05;67.97
64739;BME280;51175;51.186;0.276;2022-10-20T02:47:41;100581.59;;;17.06;68.32
64739;BME280;51175;51.186;0.276;2022-10-20T02:48:12;100586.16;;;17.05;68.42
64739;BME280;51175;51.186;0.276;2022-10-20T02:48:42;100578.16;;;17.05;67.98
64739;BME280;51175;51.186;0.276;2022-10-20T02:49:12;100579.72;;;17.06;68.08
64739;BME280;51175;51.186;0.276;2022-10-20T02:49:43;100578.91;;;17.06;68.22
64739;BME280;51175;51.186;0.276;2022-10-20T02:50:13;100577.03;;;17.06;68.16
64739;BME280;51175;51.186;0.276;2022-10-20T02:50:43;100577.84;;;17.07;67.99
64739;BME280;51175;51.186;0.276;2022-10-20T02:51:14;100582.38;;;17.06;68.05
64739;BME280;51175;51.186;0.276;2022-10-20T02:51:46;100579.72;;;17.06;68.36
64739;BME280;51175;51.186;0.276;2022-10-20T02:52:16;100586.63;;;17.07;67.96
64739;BME280;51175;51.186;0.276;2022-10-20T02:52:47;100582.38;;;17.06;68.13
64739;BME280;51175;51.186;0.276;2022-10-20T02:53:17;100583.19;;;17.07;68.01
64739;BME280;51175;51.186;0.276;2022-10-20T02:53:47;100584.25;;;17.06;68.19
64739;BME280;51175;51.186;0.276;2022-10-20T02:54:19;100582.38;;;17.06;68.05
64739;BME280;51175;51.186;0.276;2022-10-20T02:54:49;100583.19;;;17.07;68.26
64739;BME280;51175;51.186;0.276;2022-10-20T02:55:19;100571.72;;;17.06;68.28
64739;BME280;51175;51.186;0.276;2022-10-20T02:55:50;100572.50;;;17.07;68.10
64739;BME280;51175;51.186;0.276;2022-10-20T02:56:20;100575.16;;;17.07;68.11
64739;BME280;51175;51.186;0.276;2022-10-20T02:56:51;100576.78;;;17.08;68.47
64739;BME280;51175;51.186;0.276;2022-10-20T02:57:21;100570.59;;;17.07;67.99
64739;BME280;51175;51.186;0.276;2022-10-20T02:57:52;100574.09;;;17.08;68.15
64739;BME280;51175;51.186;0.276;2022-10-20T02:58:23;100571.72;;;17.06;68.19
64739;BME280;51175;51.186;0.276;2022-10-20T02:58:54;100567.16;;;17.07;68.26
64739;BME280;51175;51.186;0.276;2022-10-20T02:59:24;100572.50;;;17.07;68.23
64739;BME280;51175;51.186;0.276;2022-10-20T02:59:55;100569.84;;;17.07;68.25
64739;BME280;51175;51.186;0.276;2022-10-20T03:00:25;100574.38;;;17.06;68.21
64739;BME280;51175;51.186;0.276;2022-10-20T03:01:00;100569.84;;;17.07;67.97
64739;BME280;51175;51.186;0.276;2022-10-20T03:01:31;100568.75;;;17.08;67.99
64739;BME280;51175;51.186;0.276;2022-10-20T03:02:01;100566.09;;;17.08;68.10
64739;BME280;51175;51.186;0.276;2022-10-20T03:02:32;100561.84;;;17.07;68.20
64739;BME280;51175;51.186;0.276;2022-10-20T03:03:02;100563.44;;;17.08;68.01
64739;BME280;51175;51.186;0.276;2022-10-20T03:03:33;100562.59;;;17.07;68.23
64739;BME280;51175;51.186;0.276;2022-10-20T03:04:03;100563.44;;;17.08;68.21
64739;BME280;51175;51.186;0.276;2022-10-20T03:04:34;100555.44;;;17.08;68.00
64739;BME280;51175;51.186;0.276;2022-10-20T03:05:04;100554.59;;;17.07;67.94
64739;BME280;51175;51.186;0.276;2022-10-20T03:05:39;100560.75;;;17.08;68.28
64739;BME280;51175;51.186;0.276;2022-10-20T03:06:13;100560.75;;;17.08;68.39
64739;BME280;51175;51.186;0.276;2022-10-20T03:06:44;100555.44;;;17.08;68.20
64739;BME280;51175;51.186;0.276;2022-10-20T03:07:14;100552.75;;;17.08;68.14
64739;BME280;51175;51.186;0.276;2022-10-20T03:07:45;100546.59;;;17.07;68.09
64739;BME280;51175;51.186;0.276;2022-10-20T03:08:15;100552.75;;;17.08;68.10
64739;BME280;51175;51.186;0.276;2022-10-20T03:08:46;100543.94;;;17.07;68.11
64739;BME280;51175;51.186;0.276;2022-10-20T03:09:16;100543.94;;;17.07;68.08
64739;BME280;51175;51.186;0.276;2022-10-20T03:09:46;100547.41;;;17.08;68.37
64739;BME280;51175;51.186;0.276;2022-10-20T03:10:18;100542.34;;;17.06;68.08
64739;BME280;51175;51.186;0.276;2022-10-20T03:10:48;100541.25;;;17.07;68.29
64739;BME280;51175;51.186;0.276;2022-10-20T03:11:18;100539.41;;;17.08;68.31
64739;BME280;51175;51.186;0.276;2022-10-20T03:11:49;100540.50;;;17.07;68.11
64739;BME280;51175;51.186;0.276;2022-10-20T03:12:19;100542.88;;;17.08;68.05
64739;BME280;51175;51.186;0.276;2022-10-20T03:12:50;100540.22;;;17.08;68.35
64739;BME280;51175;51.186;0.276;2022-10-20T03:13:20;100538.59;;;17.07;68.37
64739;BME280;51175;51.186;0.276;2022-10-20T03:13:50;100538.59;;;17.07;68.49
64739;BME280;51175;51.186;0.276;2022-10-20T03:14:21;100538.59;;;17.07;68.68
64739;BME280;51175;51.186;0.276;2022-10-20T03:14:51;100542.09;;;17.08;68.18
64739;BME280;51175;51.186;0.276;2022-10-20T03:15:21;100543.16;;;17.07;68.47
64739;BME280;51175;51.186;0.276;2022-10-20T03:15:52;100541.25;;;17.07;68.33
64739;BME280;51175;51.186;0.276;2022-10-20T03:16:22;100545.56;;;17.08;68.33